createdAt,value
2023-02-14T00:00:31.907Z,48.11
2023-02-14T00:03:00.605Z,45.13
2023-02-14T00:05:27.807Z,45.29
2023-02-14T00:07:55.059Z,47.15
2023-02-14T00:10:22.207Z,46.71
2023-02-14T00:12:49.331Z,46.38
2023-02-14T00:15:16.548Z,45.56
2023-02-14T00:17:43.687Z,46.31
2023-02-14T00:20:12.747Z,45.94
2023-02-14T00:22:39.970Z,44.67
2023-02-14T00:25:07.826Z,45.45
2023-02-14T00:27:35.110Z,45.53
2023-02-14T00:30:02.398Z,46.83
2023-02-14T00:32:30.887Z,46.06
2023-02-14T00:34:58.148Z,46.98
2023-02-14T00:37:26.853Z,46.83
2023-02-14T00:39:54.252Z,47.14
2023-02-14T00:42:21.370Z,47.40
2023-02-14T00:44:48.479Z,47.32
2023-02-14T00:47:15.687Z,48.11
2023-02-14T00:49:42.866Z,48.69
2023-02-14T00:52:10.039Z,47.92
2023-02-14T00:54:38.757Z,47.63
2023-02-14T00:57:05.947Z,50.20
2023-02-14T00:59:33.191Z,50.13
2023-02-14T01:02:00.427Z,50.26
2023-02-14T01:04:27.810Z,49.88
2023-02-14T01:06:55.066Z,50.27
2023-02-14T01:09:22.308Z,50.20
2023-02-14T01:11:50.909Z,51.01
2023-02-14T01:14:18.186Z,50.21
2023-02-14T01:16:45.459Z,50.42
2023-02-14T01:19:13.000Z,50.26
2023-02-14T01:21:40.110Z,50.65
2023-02-14T01:24:08.590Z,50.00
2023-02-14T01:26:37.070Z,48.07
2023-02-14T01:29:06.056Z,49.33
2023-02-14T01:31:35.490Z,47.77
2023-02-14T01:34:03.243Z,47.06
2023-02-14T01:36:32.384Z,46.90
2023-02-14T01:39:02.358Z,47.10
2023-02-14T01:41:32.758Z,47.05
2023-02-14T01:44:03.600Z,47.15
2023-02-14T01:46:34.270Z,46.76
2023-02-14T01:49:08.345Z,46.60
2023-02-14T01:51:41.291Z,44.81
2023-02-14T01:54:10.245Z,45.45
2023-02-14T01:56:43.794Z,44.44
2023-02-14T01:59:16.853Z,44.98
2023-02-14T02:01:47.976Z,44.66
2023-02-14T02:04:22.799Z,44.73
2023-02-14T02:06:56.315Z,46.28
2023-02-14T02:09:32.974Z,43.89
2023-02-14T02:12:01.658Z,41.96
2023-02-14T02:14:29.515Z,43.27
2023-02-14T02:17:21.684Z,41.39
2023-02-14T02:20:28.884Z,40.76
2023-02-14T02:23:37.334Z,38.78
2023-02-14T02:26:43.992Z,38.18
2023-02-14T02:29:52.840Z,38.05
2023-02-14T02:33:16.053Z,37.40
2023-02-14T02:36:07.371Z,37.06
2023-02-14T02:38:55.405Z,35.71
2023-02-14T02:41:39.896Z,37.12
2023-02-14T02:44:21.952Z,37.75
2023-02-14T02:47:02.915Z,35.89
2023-02-14T02:49:45.632Z,35.23
2023-02-14T02:52:23.034Z,36.30
2023-02-14T02:54:58.753Z,35.42
2023-02-14T02:57:32.564Z,33.30
2023-02-14T03:00:02.792Z,34.92
2023-02-14T03:02:34.871Z,35.37
2023-02-14T03:05:07.087Z,35.07
2023-02-14T03:07:39.095Z,35.39
2023-02-14T03:10:12.252Z,35.59
2023-02-14T03:13:12.988Z,34.88
2023-02-14T03:15:54.133Z,35.92
2023-02-14T03:18:43.553Z,34.06
2023-02-14T03:21:23.222Z,35.32
2023-02-14T03:24:01.353Z,35.31
2023-02-14T03:26:37.998Z,35.01
2023-02-14T03:29:15.813Z,35.87
2023-02-14T03:31:55.661Z,36.03
2023-02-14T03:34:32.395Z,35.04
2023-02-14T03:37:07.313Z,34.40
2023-02-14T03:39:45.879Z,34.98
2023-02-14T03:42:19.186Z,35.84
2023-02-14T03:44:52.090Z,34.39
2023-02-14T03:47:24.618Z,35.09
2023-02-14T03:50:01.218Z,34.14
2023-02-14T03:52:33.652Z,33.01
2023-02-14T03:55:07.179Z,31.55
2023-02-14T03:57:43.873Z,32.44
2023-02-14T04:00:12.572Z,32.94
2023-02-14T04:02:46.324Z,31.12
2023-02-14T04:05:17.833Z,33.18
2023-02-14T04:07:48.265Z,31.44
2023-02-14T04:10:18.596Z,31.06
2023-02-14T04:12:46.138Z,31.58
2023-02-14T04:15:14.468Z,30.24
2023-02-14T04:17:42.042Z,31.49
2023-02-14T04:20:10.744Z,30.03
2023-02-14T04:22:37.951Z,30.39
2023-02-14T04:25:05.916Z,30.51
2023-02-14T04:27:34.651Z,31.07
2023-02-14T04:30:01.754Z,31.76
2023-02-14T04:32:29.047Z,29.98
2023-02-14T04:34:56.131Z,30.18
2023-02-14T04:37:23.351Z,31.34
2023-02-14T04:39:50.550Z,30.11
2023-02-14T04:42:17.971Z,29.49
2023-02-14T04:44:46.471Z,30.98
2023-02-14T04:47:13.570Z,31.08
2023-02-14T04:49:40.750Z,29.96
2023-02-14T04:52:08.149Z,29.54
2023-02-14T04:54:35.470Z,29.13
2023-02-14T04:57:02.571Z,29.60
2023-02-14T04:59:29.649Z,27.94
2023-02-14T05:01:58.719Z,27.69
2023-02-14T05:04:26.058Z,26.46
2023-02-14T05:06:53.290Z,25.63
2023-02-14T05:09:20.628Z,25.40
2023-02-14T05:11:47.707Z,24.52
2023-02-14T05:14:14.947Z,22.07
2023-02-14T05:16:42.148Z,22.26
2023-02-14T05:19:10.878Z,21.63
2023-02-14T05:21:38.054Z,22.09
2023-02-14T05:24:05.947Z,22.10
2023-02-14T05:26:33.108Z,21.69
2023-02-14T05:29:00.226Z,20.70
2023-02-14T05:31:27.622Z,20.68
2023-02-14T05:33:54.926Z,20.75
2023-02-14T05:36:23.530Z,21.57
2023-02-14T05:38:50.706Z,21.53
2023-02-14T05:41:17.908Z,21.33
2023-02-14T05:43:45.089Z,21.00
2023-02-14T05:46:12.358Z,21.50
2023-02-14T05:48:39.687Z,21.15
2023-02-14T05:51:09.589Z,26.73
2023-02-14T05:53:39.147Z,26.67
2023-02-14T05:56:07.555Z,28.35
2023-02-14T05:58:34.735Z,22.97
2023-02-14T06:01:02.129Z,22.46
2023-02-14T06:03:29.620Z,23.98
2023-02-14T06:05:56.960Z,23.14
2023-02-14T06:08:24.339Z,22.77
2023-02-14T06:10:53.033Z,20.70
2023-02-14T06:13:20.152Z,20.68
2023-02-14T06:15:47.434Z,22.07
2023-02-14T06:18:14.535Z,22.41
2023-02-14T06:20:41.714Z,21.68
2023-02-14T06:23:08.995Z,26.28
2023-02-14T06:25:36.202Z,31.06
2023-02-14T06:28:05.098Z,24.47
2023-02-14T06:30:32.629Z,26.26
2023-02-14T06:32:59.957Z,23.59
2023-02-14T06:35:27.183Z,25.85
2023-02-14T06:37:54.317Z,24.57
2023-02-14T06:40:21.566Z,25.42
2023-02-14T06:42:48.721Z,29.27
2023-02-14T06:45:17.699Z,28.03
2023-02-14T06:47:45.674Z,24.23
2023-02-14T06:50:13.066Z,22.52
2023-02-14T06:52:40.175Z,21.98
2023-02-14T06:55:08.234Z,19.31
2023-02-14T06:57:35.360Z,18.75
2023-02-14T07:00:03.208Z,18.81
2023-02-14T07:02:31.963Z,19.10
2023-02-14T07:04:59.136Z,18.21
2023-02-14T07:07:26.481Z,17.84
2023-02-14T07:09:53.573Z,18.45
2023-02-14T07:12:20.898Z,15.74
2023-02-14T07:14:48.172Z,11.45
2023-02-14T07:17:15.395Z,11.29
2023-02-14T07:19:44.098Z,11.84
2023-02-14T07:22:11.278Z,11.68
2023-02-14T07:24:38.574Z,11.31
2023-02-14T07:27:05.855Z,11.57
2023-02-14T07:29:33.069Z,13.75
2023-02-14T07:32:00.456Z,12.46
2023-02-14T07:34:27.854Z,12.56
2023-02-14T07:36:56.453Z,12.56
2023-02-14T07:39:23.600Z,11.75
2023-02-14T07:41:50.693Z,10.54
2023-02-14T07:44:17.956Z,10.12
2023-02-14T07:46:45.353Z,9.78
2023-02-14T07:49:12.617Z,9.81
2023-02-14T07:51:39.771Z,10.03
2023-02-14T07:54:08.555Z,9.70
2023-02-14T07:56:35.673Z,11.27
2023-02-14T07:59:03.573Z,11.93
2023-02-14T08:01:31.279Z,17.16
2023-02-14T08:03:58.585Z,21.30
2023-02-14T08:06:25.791Z,28.41
2023-02-14T08:08:52.980Z,30.71
2023-02-14T08:11:21.594Z,31.28
2023-02-14T08:13:48.704Z,36.45
2023-02-14T08:16:15.836Z,34.57
2023-02-14T08:18:43.049Z,32.38
2023-02-14T08:21:11.287Z,35.04
2023-02-14T08:23:39.162Z,36.86
2023-02-14T08:26:06.599Z,40.61
2023-02-14T08:28:35.450Z,44.24
2023-02-14T08:31:04.351Z,45.50
2023-02-14T08:33:31.866Z,47.99
2023-02-14T08:35:59.209Z,45.43
2023-02-14T08:38:26.489Z,47.47
2023-02-14T08:40:53.609Z,46.65
2023-02-14T08:43:21.038Z,47.73
2023-02-14T08:45:52.709Z,48.28
2023-02-14T08:48:20.066Z,45.71
2023-02-14T08:50:47.328Z,45.62
2023-02-14T08:53:14.456Z,45.65
2023-02-14T08:55:41.691Z,44.48
2023-02-14T08:58:09.209Z,43.89
2023-02-14T09:00:36.558Z,42.90
2023-02-14T09:03:05.362Z,42.75
2023-02-14T09:05:33.338Z,44.95
2023-02-14T09:08:02.312Z,45.13
2023-02-14T09:10:29.607Z,47.65
2023-02-14T09:12:56.789Z,46.06
2023-02-14T09:15:24.098Z,47.08
2023-02-14T09:17:51.211Z,46.00
2023-02-14T09:20:20.227Z,42.54
2023-02-14T09:22:48.848Z,45.67
2023-02-14T09:25:16.267Z,45.08
2023-02-14T09:27:43.428Z,45.15
2023-02-14T09:30:12.010Z,46.43
2023-02-14T09:32:39.254Z,44.53
2023-02-14T09:35:07.475Z,45.32
2023-02-14T09:37:36.129Z,43.80
2023-02-14T09:40:03.828Z,46.20
2023-02-14T09:42:51.716Z,48.21
2023-02-14T09:45:24.288Z,44.04
2023-02-14T09:47:56.549Z,43.90
2023-02-14T09:50:30.072Z,42.48
2023-02-14T09:53:03.418Z,42.79
2023-02-14T09:55:40.228Z,46.22
2023-02-14T09:58:16.391Z,44.38
2023-02-14T10:00:50.261Z,42.87
2023-02-14T10:03:41.974Z,44.63
2023-02-14T10:06:28.192Z,43.63
2023-02-14T10:09:08.048Z,45.89
2023-02-14T10:11:36.547Z,46.61
2023-02-14T10:14:12.008Z,46.05
2023-02-14T10:16:46.420Z,44.64
2023-02-14T10:19:21.347Z,45.62
2023-02-14T10:21:54.834Z,42.15
2023-02-14T10:24:28.329Z,46.26
2023-02-14T10:29:45.045Z,43.93
2023-02-14T10:32:20.145Z,45.90
2023-02-14T10:34:49.771Z,47.23
2023-02-14T10:37:30.054Z,46.00
2023-02-14T10:40:22.296Z,47.92
2023-02-14T10:43:01.090Z,44.62
2023-02-14T10:45:39.414Z,47.50
2023-02-14T10:48:21.752Z,44.89
2023-02-14T10:50:59.925Z,43.94
2023-02-14T10:53:41.991Z,44.24
2023-02-14T10:56:20.350Z,43.69
2023-02-14T10:58:51.975Z,43.13
2023-02-14T11:01:19.625Z,42.82
2023-02-14T11:03:54.824Z,42.46
2023-02-14T11:06:22.112Z,42.61
2023-02-14T11:08:49.403Z,45.36
2023-02-14T11:11:30.953Z,42.35
2023-02-14T11:13:58.246Z,42.41
2023-02-14T11:16:34.537Z,43.54
2023-02-14T11:19:18.792Z,43.20
2023-02-14T11:21:48.652Z,43.29
2023-02-14T11:24:25.592Z,42.45
2023-02-14T11:26:59.052Z,42.57
2023-02-14T11:29:30.486Z,43.47
2023-02-14T11:32:08.320Z,46.34
2023-02-14T11:34:39.015Z,46.30
2023-02-14T11:37:24.712Z,43.21
2023-02-14T11:39:55.116Z,37.66
2023-02-14T11:42:38.629Z,40.13
2023-02-14T11:45:07.532Z,42.88
2023-02-14T11:47:36.672Z,46.45
2023-02-14T11:50:07.597Z,45.13
2023-02-14T11:52:48.160Z,46.52
2023-02-14T11:55:27.575Z,47.58
2023-02-14T11:57:58.138Z,46.92
2023-02-14T12:00:26.442Z,45.55
2023-02-14T12:02:55.826Z,44.30
2023-02-14T12:05:28.984Z,46.83
2023-02-14T12:07:59.796Z,45.76
2023-02-14T12:10:29.133Z,47.17
2023-02-14T12:13:04.597Z,45.93
2023-02-14T12:15:36.015Z,46.20
2023-02-14T12:18:37.147Z,45.24
2023-02-14T12:21:27.240Z,47.13
2023-02-14T12:24:06.076Z,45.25
2023-02-14T12:26:36.686Z,46.30
2023-02-14T12:29:18.215Z,45.78
2023-02-14T12:31:48.241Z,43.67
2023-02-14T12:34:18.873Z,42.61
2023-02-14T12:37:05.590Z,44.31
2023-02-14T12:39:48.794Z,43.06
2023-02-14T12:42:31.600Z,43.11
2023-02-14T12:45:14.868Z,44.01
2023-02-14T12:47:56.809Z,42.34
2023-02-14T12:50:42.993Z,44.04
2023-02-14T12:53:45.634Z,44.61
2023-02-14T12:56:28.331Z,43.92
2023-02-14T12:59:12.856Z,43.30
2023-02-14T13:02:04.841Z,43.21
2023-02-14T13:04:55.577Z,42.98
2023-02-14T13:07:44.760Z,44.19
2023-02-14T13:10:22.394Z,44.23
2023-02-14T13:13:01.280Z,44.61
2023-02-14T13:15:38.972Z,44.96
2023-02-14T13:18:19.132Z,45.67
2023-02-14T13:20:54.197Z,43.14
2023-02-14T13:23:29.213Z,41.66
2023-02-14T13:26:02.575Z,39.39
2023-02-14T13:28:31.887Z,39.94
2023-02-14T13:31:00.756Z,39.38
2023-02-14T13:33:36.531Z,39.71
2023-02-14T13:36:08.228Z,40.38
2023-02-14T13:38:43.234Z,40.55
2023-02-14T13:41:12.891Z,41.28
2023-02-14T13:43:54.531Z,40.59
2023-02-14T13:46:46.852Z,37.54
2023-02-14T13:49:27.158Z,28.38
2023-02-14T13:51:56.789Z,35.87
2023-02-14T13:54:34.530Z,35.47
2023-02-14T13:57:23.652Z,36.31
2023-02-14T14:00:36.081Z,36.65
2023-02-14T14:03:04.307Z,36.16
2023-02-14T14:06:03.924Z,36.36
2023-02-14T14:08:46.613Z,36.94
2023-02-14T14:11:58.626Z,36.29
2023-02-14T14:14:35.528Z,35.18
2023-02-14T14:17:19.133Z,35.87
2023-02-14T14:19:47.151Z,36.15
2023-02-14T14:22:16.207Z,35.43
2023-02-14T14:24:54.974Z,35.69
2023-02-14T14:27:24.876Z,37.25
2023-02-14T14:29:55.908Z,37.44
2023-02-14T14:32:28.487Z,36.13
2023-02-14T14:34:59.324Z,36.56
2023-02-14T14:37:30.210Z,35.60
2023-02-14T14:40:00.194Z,27.83
2023-02-14T14:42:30.852Z,36.23
2023-02-14T14:45:02.780Z,33.42
2023-02-14T14:47:39.853Z,39.03
2023-02-14T14:50:14.931Z,37.26
2023-02-14T14:52:49.135Z,38.21
2023-02-14T14:55:21.993Z,39.48
2023-02-14T14:57:52.130Z,38.74
2023-02-14T15:00:24.039Z,37.86
2023-02-14T15:03:05.806Z,39.01
2023-02-14T15:05:36.011Z,38.30
2023-02-14T15:08:29.729Z,37.93
2023-02-14T15:11:02.926Z,36.19
2023-02-14T15:13:37.460Z,35.12
2023-02-14T15:16:05.026Z,34.22
2023-02-14T15:18:32.602Z,34.62
2023-02-14T15:21:01.841Z,27.20
2023-02-14T15:23:30.902Z,24.47
2023-02-14T15:25:58.520Z,33.75
2023-02-14T15:28:31.229Z,33.35
2023-02-14T15:31:05.458Z,33.97
2023-02-14T15:33:34.560Z,32.54
2023-02-14T15:36:05.526Z,32.45
2023-02-14T15:38:40.704Z,33.74
2023-02-14T15:41:09.140Z,34.04
2023-02-14T15:43:37.491Z,32.91
2023-02-14T15:46:18.483Z,33.72
2023-02-14T15:48:46.919Z,33.95
2023-02-14T15:51:22.153Z,34.26
2023-02-14T15:53:54.804Z,17.18
2023-02-14T15:56:25.680Z,33.60
2023-02-14T15:59:00.663Z,39.08
2023-02-14T16:01:28.991Z,36.36
2023-02-14T16:03:59.576Z,34.58
2023-02-14T16:06:36.250Z,34.01
2023-02-14T16:09:07.980Z,33.97
2023-02-14T16:11:37.573Z,35.01
2023-02-14T16:14:29.047Z,35.00
2023-02-14T16:17:01.379Z,35.17
2023-02-14T16:19:34.253Z,33.33
2023-02-14T16:22:01.368Z,32.56
2023-02-14T16:24:29.933Z,32.27
2023-02-14T16:26:57.186Z,31.35
2023-02-14T16:29:24.445Z,30.59
2023-02-14T16:34:42.589Z,29.22
2023-02-14T16:37:21.410Z,28.02
2023-02-14T16:39:53.647Z,29.20
2023-02-14T16:42:21.069Z,30.33
2023-02-14T16:44:48.669Z,31.25
2023-02-14T16:47:17.406Z,31.15
2023-02-14T16:49:45.210Z,33.62
2023-02-14T16:52:17.117Z,33.23
2023-02-14T16:54:44.550Z,37.93
2023-02-14T16:57:20.548Z,41.22
2023-02-14T16:59:47.770Z,40.74
2023-02-14T17:02:14.940Z,50.09
2023-02-14T17:04:42.129Z,46.80
2023-02-14T17:07:09.938Z,44.56
2023-02-14T17:09:43.313Z,37.60
2023-02-14T17:12:16.933Z,35.20
2023-02-14T17:14:49.736Z,34.46
2023-02-14T17:17:17.085Z,34.80
2023-02-14T17:19:45.043Z,33.20
2023-02-14T17:22:14.710Z,34.52
2023-02-14T17:24:42.084Z,34.76
2023-02-14T17:27:09.271Z,34.12
2023-02-14T17:29:37.812Z,35.80
2023-02-14T17:32:05.523Z,35.10
2023-02-14T17:34:33.584Z,35.72
2023-02-14T17:37:00.899Z,36.10
2023-02-14T17:39:28.111Z,34.68
2023-02-14T17:41:55.352Z,36.17
2023-02-14T17:44:23.273Z,37.21
2023-02-14T17:46:52.154Z,35.83
2023-02-14T17:49:19.251Z,35.29
2023-02-14T17:51:46.450Z,33.52
2023-02-14T17:54:13.710Z,32.87
2023-02-14T17:56:40.951Z,35.07
2023-02-14T17:59:08.661Z,34.90
2023-02-14T18:01:35.924Z,35.32
2023-02-14T18:04:04.893Z,37.37
2023-02-14T18:06:32.706Z,38.72
2023-02-14T18:08:59.912Z,38.03
2023-02-14T18:11:28.553Z,39.09
2023-02-14T18:13:56.974Z,38.55
2023-02-14T18:16:24.578Z,40.32
2023-02-14T18:18:52.663Z,40.97
2023-02-14T18:21:21.392Z,40.12
2023-02-14T18:23:49.126Z,40.93
2023-02-14T18:26:17.696Z,41.10
2023-02-14T18:28:45.557Z,42.10
2023-02-14T18:31:15.570Z,41.78
2023-02-14T18:33:43.889Z,42.51
2023-02-14T18:36:13.972Z,42.93
2023-02-14T18:38:45.212Z,42.37
2023-02-14T18:41:15.254Z,42.11
2023-02-14T18:43:43.686Z,43.26
2023-02-14T18:46:12.866Z,42.90
2023-02-14T18:48:40.590Z,42.67
2023-02-14T18:51:09.133Z,42.29
2023-02-14T18:53:36.490Z,42.08
2023-02-14T18:56:07.105Z,40.79
2023-02-14T18:58:35.984Z,41.59
2023-02-14T19:01:09.371Z,41.64
2023-02-14T19:03:36.847Z,39.84
2023-02-14T19:06:04.973Z,40.22
2023-02-14T19:08:32.326Z,39.27
2023-02-14T19:10:59.813Z,39.42
2023-02-14T19:13:29.934Z,39.20
2023-02-14T19:15:57.232Z,38.71
2023-02-14T19:18:25.730Z,38.50
2023-02-14T19:20:53.158Z,38.98
2023-02-14T19:23:20.392Z,38.78
2023-02-14T19:25:48.172Z,39.07
2023-02-14T19:28:15.412Z,37.86
2023-02-14T19:30:44.086Z,38.45
2023-02-14T19:33:11.216Z,37.44
2023-02-14T19:35:38.452Z,37.79
2023-02-14T19:38:06.352Z,38.11
2023-02-14T19:40:33.632Z,37.85
2023-02-14T19:43:00.713Z,37.06
2023-02-14T19:45:27.980Z,35.79
2023-02-14T19:47:56.816Z,37.88
2023-02-14T19:50:23.934Z,36.56
2023-02-14T19:52:51.276Z,36.43
2023-02-14T19:55:22.274Z,37.66
2023-02-14T19:57:49.435Z,36.50
2023-02-14T20:00:17.687Z,37.07
2023-02-14T20:02:44.811Z,35.29
2023-02-14T20:05:15.632Z,35.41
2023-02-14T20:07:42.874Z,35.35
2023-02-14T20:10:10.913Z,33.94
2023-02-14T20:12:38.712Z,34.37
2023-02-14T20:15:07.282Z,34.42
2023-02-14T20:17:35.710Z,31.99
2023-02-14T20:20:03.308Z,32.86
2023-02-14T20:22:32.030Z,34.28
2023-02-14T20:24:59.943Z,32.97
2023-02-14T20:27:27.213Z,18.27
2023-02-14T20:29:54.663Z,23.95
2023-02-14T20:32:21.908Z,24.64
2023-02-14T20:34:49.008Z,26.48
2023-02-14T20:37:16.227Z,26.76
2023-02-14T20:39:45.048Z,27.70
2023-02-14T20:42:12.388Z,29.49
2023-02-14T20:44:39.668Z,30.18
2023-02-14T20:47:07.588Z,30.77
2023-02-14T20:49:34.950Z,30.36
2023-02-14T20:52:03.508Z,29.76
2023-02-14T20:54:31.164Z,29.88
2023-02-14T20:56:59.816Z,29.90
2023-02-14T20:59:27.187Z,29.25
2023-02-14T21:01:55.910Z,29.99
2023-02-14T21:04:24.192Z,29.39
2023-02-14T21:06:51.473Z,29.03
2023-02-14T21:09:18.745Z,29.10
2023-02-14T21:11:46.272Z,29.19
2023-02-14T21:14:14.969Z,29.31
2023-02-14T21:16:42.051Z,29.48
2023-02-14T21:19:09.169Z,29.53
2023-02-14T21:21:37.943Z,30.15
2023-02-14T21:24:07.824Z,29.40
2023-02-14T21:26:36.307Z,28.55
2023-02-14T21:29:04.694Z,28.66
2023-02-14T21:31:34.719Z,28.34
2023-02-14T21:34:03.098Z,28.68
2023-02-14T21:36:32.474Z,29.07
2023-02-14T21:39:00.311Z,29.25
2023-02-14T21:41:29.634Z,28.05
2023-02-14T21:43:59.269Z,28.78
2023-02-14T21:46:29.043Z,29.14
2023-02-14T21:48:59.058Z,29.20
2023-02-14T21:51:26.419Z,28.88
2023-02-14T21:53:54.255Z,28.24
2023-02-14T21:56:23.394Z,29.26
2023-02-14T21:58:53.093Z,28.49
2023-02-14T22:01:22.107Z,30.22
2023-02-14T22:03:50.075Z,29.54
2023-02-14T22:06:19.593Z,30.12
2023-02-14T22:08:47.033Z,30.42
2023-02-14T22:11:16.094Z,30.26
2023-02-14T22:13:43.454Z,29.78
2023-02-14T22:16:13.338Z,30.31
2023-02-14T22:18:42.093Z,29.21
2023-02-14T22:21:11.882Z,29.46
2023-02-14T22:23:41.252Z,29.48
2023-02-14T22:26:14.934Z,29.07
2023-02-14T22:28:44.205Z,28.74
2023-02-14T22:31:12.175Z,29.60
2023-02-14T22:33:40.114Z,29.14
2023-02-14T22:36:08.342Z,28.78
2023-02-14T22:38:36.449Z,28.93
2023-02-14T22:41:10.369Z,29.03
2023-02-14T22:43:39.276Z,28.94
2023-02-14T22:46:09.493Z,28.12
2023-02-14T22:48:38.690Z,27.69
2023-02-14T22:51:10.913Z,27.73
2023-02-14T22:53:38.857Z,27.28
2023-02-14T22:56:16.324Z,27.37
2023-02-14T22:58:44.551Z,27.35
2023-02-14T23:01:16.194Z,26.36
2023-02-14T23:03:43.651Z,25.49
2023-02-14T23:06:11.878Z,25.39
2023-02-14T23:08:39.477Z,24.56
2023-02-14T23:11:08.666Z,23.67
2023-02-14T23:13:37.747Z,22.55
2023-02-14T23:16:05.083Z,23.44
2023-02-14T23:18:32.248Z,23.73
2023-02-14T23:20:59.374Z,23.93
2023-02-14T23:23:30.887Z,22.78
2023-02-14T23:25:58.508Z,22.51
2023-02-14T23:28:26.611Z,22.82
2023-02-14T23:30:59.946Z,23.90
2023-02-14T23:33:27.250Z,23.62
2023-02-14T23:35:54.507Z,23.61
2023-02-14T23:38:21.587Z,23.17
2023-02-14T23:40:48.691Z,23.15
2023-02-14T23:43:15.730Z,21.64
2023-02-14T23:45:42.807Z,21.20
2023-02-14T23:48:11.554Z,20.92
2023-02-14T23:50:38.694Z,20.63
2023-02-14T23:53:06.129Z,19.72
2023-02-14T23:55:33.532Z,19.78
2023-02-14T23:58:00.691Z,19.60
